Time;durP1;ratioP1;P1;durP2;ratioP2;P2;SDS_P1;SDS_P2;PMS_P1;PMS_P2;Temp;Humidity;BMP_temperature;BMP_pressure;BME280_temperature;BME280_humidity;BME280_pressure;Samples;Min_cycle;Max_cycle;Signal;HPM_P1;HPM_P2
2021/12/30 00:01:53;;;;;;;47.88;28.35;;;;;;;;;;5058833;28;20021;-85
2021/12/30 00:04:22;;;;;;;51.55;29.02;;;;;;;;;;5060021;28;20021;-84
2021/12/30 00:06:48;;;;;;;45.80;26.88;;;;;;;;;;5059303;28;20043;-84
2021/12/30 00:09:15;;;;;;;46.35;27.40;;;;;;;;;;5059549;28;20036;-85
2021/12/30 00:11:41;;;;;;;41.22;25.80;;;;;;;;;;5060132;28;20496;-85
2021/12/30 00:14:08;;;;;;;46.10;27.40;;;;;;;;;;5058632;28;20079;-85
2021/12/30 00:16:35;;;;;;;46.50;27.15;;;;;;;;;;5059459;28;20488;-84
2021/12/30 00:19:01;;;;;;;47.30;27.17;;;;;;;;;;5058837;28;20033;-86
2021/12/30 00:21:27;;;;;;;44.90;26.85;;;;;;;;;;5058942;28;20033;-86
2021/12/30 00:23:53;;;;;;;44.85;26.27;;;;;;;;;;5059966;28;20388;-86
2021/12/30 00:26:19;;;;;;;46.15;26.77;;;;;;;;;;5058432;28;20021;-85
2021/12/30 00:28:46;;;;;;;47.60;28.42;;;;;;;;;;5058941;28;20464;-85
2021/12/30 00:31:12;;;;;;;48.45;27.35;;;;;;;;;;5059212;28;20031;-85
2021/12/30 00:33:38;;;;;;;50.72;28.90;;;;;;;;;;5059182;28;20025;-88
2021/12/30 00:36:06;;;;;;;48.80;28.83;;;;;;;;;;5059161;28;20028;-88
2021/12/30 00:38:33;;;;;;;50.42;29.45;;;;;;;;;;5058500;28;20123;-88
2021/12/30 00:40:59;;;;;;;51.83;29.48;;;;;;;;;;5059228;28;20041;-87
2021/12/30 00:43:25;;;;;;;50.92;29.05;;;;;;;;;;5059093;28;20013;-87
2021/12/30 00:45:51;;;;;;;51.92;30.35;;;;;;;;;;5059143;28;20047;-87
2021/12/30 00:48:17;;;;;;;59.47;32.53;;;;;;;;;;5058943;28;20025;-88
2021/12/30 00:50:44;;;;;;;59.45;33.28;;;;;;;;;;5042858;28;20557;-89
2021/12/30 00:53:10;;;;;;;59.97;32.67;;;;;;;;;;5039323;28;20021;-88
2021/12/30 00:55:37;;;;;;;61.03;33.08;;;;;;;;;;5039349;28;20048;-89
2021/12/30 00:58:04;;;;;;;68.82;33.78;;;;;;;;;;5039476;28;20040;-89
2021/12/30 01:00:31;;;;;;;71.13;34.55;;;;;;;;;;5039585;28;20063;-88
2021/12/30 01:02:57;;;;;;;66.35;33.13;;;;;;;;;;5038428;28;20030;-88
2021/12/30 01:05:23;;;;;;;65.70;31.13;;;;;;;;;;5038051;28;20028;-87
2021/12/30 01:07:49;;;;;;;71.47;32.17;;;;;;;;;;5039048;28;20025;-89
2021/12/30 01:10:20;;;;;;;83.32;29.50;;;;;;;;;;5038923;28;20038;-88
2021/12/30 01:12:46;;;;;;;66.95;30.13;;;;;;;;;;5039204;28;20037;-89
2021/12/30 01:15:13;;;;;;;61.95;28.67;;;;;;;;;;5039019;28;20358;-88
2021/12/30 01:20:17;;;;;;;63.88;26.92;;;;;;;;;;5039014;28;20030;-90
2021/12/30 01:22:43;;;;;;;57.70;28.02;;;;;;;;;;5038817;28;20026;-88
2021/12/30 01:25:11;;;;;;;63.88;29.30;;;;;;;;;;5038936;28;20021;-89
2021/12/30 01:27:40;;;;;;;52.72;27.23;;;;;;;;;;5039259;28;20045;-88
2021/12/30 01:30:07;;;;;;;53.92;26.38;;;;;;;;;;5037722;28;20041;-88
2021/12/30 01:32:33;;;;;;;52.70;26.80;;;;;;;;;;5038701;28;20029;-88
2021/12/30 01:35:00;;;;;;;64.13;26.92;;;;;;;;;;5038701;28;20021;-88
2021/12/30 01:37:26;;;;;;;49.38;25.98;;;;;;;;;;5038339;28;20292;-88
2021/12/30 01:39:53;;;;;;;58.60;27.42;;;;;;;;;;5038482;28;20028;-88
2021/12/30 01:42:19;;;;;;;51.33;26.17;;;;;;;;;;5037600;28;20041;-88
2021/12/30 01:44:46;;;;;;;62.05;27.50;;;;;;;;;;5038606;28;20105;-88
2021/12/30 01:47:12;;;;;;;66.05;27.88;;;;;;;;;;5037511;28;20358;-88
2021/12/30 01:49:38;;;;;;;55.00;28.10;;;;;;;;;;5038099;28;20051;-89
2021/12/30 01:52:04;;;;;;;56.80;26.67;;;;;;;;;;5037569;28;20335;-89
2021/12/30 01:54:31;;;;;;;63.05;26.25;;;;;;;;;;5037148;28;20025;-88
2021/12/30 01:56:59;;;;;;;59.90;27.80;;;;;;;;;;5037726;28;20101;-88
2021/12/30 01:59:25;;;;;;;62.25;25.70;;;;;;;;;;5037853;28;20453;-88
2021/12/30 02:01:56;;;;;;;86.50;27.73;;;;;;;;;;5038179;28;20044;-89
2021/12/30 02:04:23;;;;;;;55.35;26.67;;;;;;;;;;5038375;28;20060;-89
2021/12/30 02:06:49;;;;;;;75.60;25.88;;;;;;;;;;5037808;28;20506;-89
2021/12/30 02:09:17;;;;;;;79.35;26.52;;;;;;;;;;5037813;28;20396;-87
2021/12/30 02:11:43;;;;;;;55.42;24.50;;;;;;;;;;5038095;28;20120;-86
2021/12/30 02:14:09;;;;;;;57.45;26.02;;;;;;;;;;5038093;28;20087;-88
2021/12/30 02:16:37;;;;;;;61.17;25.15;;;;;;;;;;5036755;28;20021;-86
2021/12/30 02:19:03;;;;;;;58.72;25.50;;;;;;;;;;5037761;28;20025;-90
2021/12/30 02:21:29;;;;;;;61.35;24.85;;;;;;;;;;5038272;28;20048;-90
2021/12/30 02:23:57;;;;;;;60.85;24.88;;;;;;;;;;5038135;28;20036;-90
2021/12/30 02:26:24;;;;;;;56.45;25.20;;;;;;;;;;5037777;28;20029;-90
2021/12/30 02:28:50;;;;;;;60.85;26.05;;;;;;;;;;5037978;28;20128;-91
2021/12/30 02:31:17;;;;;;;56.42;24.65;;;;;;;;;;5037787;28;20104;-90
2021/12/30 02:33:44;;;;;;;71.07;24.83;;;;;;;;;;5036717;28;20508;-89
2021/12/30 02:36:11;;;;;;;57.10;25.98;;;;;;;;;;5036707;28;20033;-89
2021/12/30 02:38:42;;;;;;;69.78;25.67;;;;;;;;;;5037857;28;20026;-89
2021/12/30 02:41:08;;;;;;;67.70;26.02;;;;;;;;;;5037352;28;20077;-90
2021/12/30 02:43:34;;;;;;;60.10;26.00;;;;;;;;;;5037485;28;20416;-89
2021/12/30 02:46:01;;;;;;;56.92;25.50;;;;;;;;;;5037000;28;20033;-89
2021/12/30 02:48:31;;;;;;;60.42;26.80;;;;;;;;;;5037623;28;20419;-88
2021/12/30 02:50:59;;;;;;;62.15;26.83;;;;;;;;;;5037315;28;20033;-89
2021/12/30 02:53:25;;;;;;;54.78;24.05;;;;;;;;;;5040057;28;20080;-88
2021/12/30 02:55:53;;;;;;;62.08;26.42;;;;;;;;;;5040508;28;20420;-90
2021/12/30 02:58:20;;;;;;;58.45;25.85;;;;;;;;;;5041668;28;20324;-89
2021/12/30 03:00:47;;;;;;;59.40;25.80;;;;;;;;;;5041197;28;20028;-89
2021/12/30 03:03:21;;;;;;;59.50;24.55;;;;;;;;;;5041409;28;20415;-89
2021/12/30 03:05:48;;;;;;;62.28;24.83;;;;;;;;;;5041122;28;20036;-89
2021/12/30 03:08:14;;;;;;;57.63;26.10;;;;;;;;;;5040489;28;20499;-89
2021/12/30 03:10:40;;;;;;;59.90;25.42;;;;;;;;;;5040318;28;20037;-89
2021/12/30 03:13:08;;;;;;;60.97;24.67;;;;;;;;;;5040203;28;20025;-90
2021/12/30 03:15:35;;;;;;;56.53;24.63;;;;;;;;;;5041122;28;20100;-89
2021/12/30 03:18:01;;;;;;;55.17;24.83;;;;;;;;;;5041195;28;20033;-89
2021/12/30 03:20:27;;;;;;;61.47;24.65;;;;;;;;;;5041049;28;20025;-89
2021/12/30 03:22:53;;;;;;;62.33;26.83;;;;;;;;;;5041243;28;20026;-90
2021/12/30 03:25:19;;;;;;;60.53;24.85;;;;;;;;;;5041337;28;20060;-89
2021/12/30 03:27:45;;;;;;;54.53;25.40;;;;;;;;;;5041865;28;20025;-88
2021/12/30 03:30:13;;;;;;;65.68;27.40;;;;;;;;;;5040095;28;20034;-89
2021/12/30 03:32:40;;;;;;;68.95;28.80;;;;;;;;;;5040860;28;20071;-89
2021/12/30 03:35:06;;;;;;;70.05;29.75;;;;;;;;;;5039811;28;20036;-89
2021/12/30 03:37:32;;;;;;;72.28;29.63;;;;;;;;;;5040586;28;20033;-89
2021/12/30 03:39:59;;;;;;;67.10;29.13;;;;;;;;;;5040507;28;20441;-89
2021/12/30 03:42:25;;;;;;;74.95;29.67;;;;;;;;;;5039510;28;20053;-90
2021/12/30 03:44:56;;;;;;;76.25;30.55;;;;;;;;;;5040564;28;20026;-88
2021/12/30 03:47:22;;;;;;;77.75;30.38;;;;;;;;;;5040774;28;20032;-90
2021/12/30 03:49:48;;;;;;;72.78;29.10;;;;;;;;;;5040608;28;20056;-88
2021/12/30 03:52:19;;;;;;;75.63;29.85;;;;;;;;;;5039512;28;20029;-86
2021/12/30 03:54:45;;;;;;;75.13;31.23;;;;;;;;;;5040312;28;20021;-86
2021/12/30 03:57:12;;;;;;;77.90;31.17;;;;;;;;;;5040377;28;20086;-89
2021/12/30 03:59:38;;;;;;;75.65;30.10;;;;;;;;;;5040598;28;20064;-90
2021/12/30 04:02:04;;;;;;;71.50;30.10;;;;;;;;;;5039414;28;20025;-89
2021/12/30 04:04:31;;;;;;;77.95;31.20;;;;;;;;;;5038593;28;20343;-89
2021/12/30 04:06:57;;;;;;;77.68;32.00;;;;;;;;;;5040425;28;20021;-89
2021/12/30 04:09:24;;;;;;;83.18;32.92;;;;;;;;;;5040345;28;20344;-89
2021/12/30 04:11:50;;;;;;;78.00;30.95;;;;;;;;;;5039311;28;20025;-88
2021/12/30 04:14:16;;;;;;;81.43;31.55;;;;;;;;;;5040088;28;20037;-87
2021/12/30 04:16:42;;;;;;;83.45;32.88;;;;;;;;;;5040042;28;20056;-86
2021/12/30 04:19:08;;;;;;;87.00;33.08;;;;;;;;;;5039865;28;20396;-86
2021/12/30 04:21:34;;;;;;;78.55;32.10;;;;;;;;;;5039894;28;20036;-86
2021/12/30 04:24:00;;;;;;;85.72;32.75;;;;;;;;;;5040105;28;20022;-86
2021/12/30 04:26:27;;;;;;;88.47;33.00;;;;;;;;;;5038998;28;20031;-85
2021/12/30 04:28:53;;;;;;;90.38;35.38;;;;;;;;;;5039826;28;20033;-85
2021/12/30 04:31:19;;;;;;;92.70;34.30;;;;;;;;;;5039835;28;20036;-85
2021/12/30 04:33:45;;;;;;;79.68;32.83;;;;;;;;;;5039668;28;20026;-85
2021/12/30 04:36:11;;;;;;;88.05;33.00;;;;;;;;;;5038772;28;20083;-86
2021/12/30 04:38:37;;;;;;;83.07;32.65;;;;;;;;;;5039576;28;20052;-86
2021/12/30 04:41:05;;;;;;;85.13;33.30;;;;;;;;;;5039469;28;20059;-86
2021/12/30 04:43:31;;;;;;;82.65;33.30;;;;;;;;;;5039516;28;20049;-87
2021/12/30 04:45:59;;;;;;;88.63;33.97;;;;;;;;;;5039495;28;20091;-86
2021/12/30 04:48:25;;;;;;;83.15;32.45;;;;;;;;;;5039304;28;20029;-86
2021/12/30 04:50:53;;;;;;;84.10;32.70;;;;;;;;;;5039745;28;20312;-86
2021/12/30 04:53:19;;;;;;;81.85;32.92;;;;;;;;;;5039653;28;20301;-86
2021/12/30 04:55:45;;;;;;;85.88;33.85;;;;;;;;;;5039454;28;20026;-88
2021/12/30 04:58:12;;;;;;;89.97;35.33;;;;;;;;;;5038542;28;20424;-88
2021/12/30 05:00:38;;;;;;;87.32;34.33;;;;;;;;;;5039315;28;20124;-88
2021/12/30 05:03:12;;;;;;;88.53;34.40;;;;;;;;;;5039122;28;20025;-92
2021/12/30 05:05:40;;;;;;;94.28;37.47;;;;;;;;;;5039648;28;20027;-87
2021/12/30 05:08:06;;;;;;;94.20;37.33;;;;;;;;;;5038489;28;20116;-87
2021/12/30 05:10:32;;;;;;;94.50;36.03;;;;;;;;;;5039208;28;20044;-88
2021/12/30 05:12:58;;;;;;;95.82;36.20;;;;;;;;;;5039234;28;20064;-87
2021/12/30 05:15:24;;;;;;;96.63;35.88;;;;;;;;;;5038431;28;20029;-89
2021/12/30 05:17:50;;;;;;;84.53;35.35;;;;;;;;;;5037553;28;20033;-90
2021/12/30 05:20:17;;;;;;;94.07;37.50;;;;;;;;;;5039090;28;20032;-89
2021/12/30 05:22:43;;;;;;;89.80;36.70;;;;;;;;;;5038939;28;20017;-89
2021/12/30 05:25:10;;;;;;;95.05;37.20;;;;;;;;;;5037834;28;20051;-89
2021/12/30 05:27:36;;;;;;;95.15;37.63;;;;;;;;;;5038662;28;20423;-89
2021/12/30 05:30:06;;;;;;;91.60;39.25;;;;;;;;;;5038644;28;20025;-87
2021/12/30 05:32:32;;;;;;;87.13;35.13;;;;;;;;;;5038630;28;20060;-90
2021/12/30 05:34:58;;;;;;;85.75;34.38;;;;;;;;;;5038708;28;20029;-89
2021/12/30 05:37:24;;;;;;;97.40;37.90;;;;;;;;;;5038401;28;20037;-87
2021/12/30 05:39:50;;;;;;;96.75;38.20;;;;;;;;;;5038325;28;20408;-89
2021/12/30 05:42:16;;;;;;;102.20;40.65;;;;;;;;;;5037388;28;20419;-89
2021/12/30 05:44:42;;;;;;;111.32;41.97;;;;;;;;;;5037397;28;20021;-88
2021/12/30 05:47:09;;;;;;;102.18;40.03;;;;;;;;;;5038394;28;20031;-89
2021/12/30 05:49:35;;;;;;;102.90;39.30;;;;;;;;;;5038263;28;20029;-89
2021/12/30 05:52:01;;;;;;;102.43;41.75;;;;;;;;;;5038503;28;20029;-88
2021/12/30 05:54:27;;;;;;;116.30;42.50;;;;;;;;;;5021095;28;20120;-89
2021/12/30 05:56:53;;;;;;;119.85;42.17;;;;;;;;;;5037580;28;20025;-88
2021/12/30 05:59:19;;;;;;;124.50;44.15;;;;;;;;;;5038138;28;20025;-89
2021/12/30 06:01:45;;;;;;;108.93;41.92;;;;;;;;;;5038153;28;20021;-90
2021/12/30 06:04:11;;;;;;;106.88;40.22;;;;;;;;;;5037974;28;20037;-89
2021/12/30 06:06:37;;;;;;;94.55;36.95;;;;;;;;;;5038027;28;20022;-90
2021/12/30 06:09:04;;;;;;;108.88;36.80;;;;;;;;;;5037950;28;20053;-90
2021/12/30 06:11:30;;;;;;;92.25;36.60;;;;;;;;;;5038078;28;20116;-90
2021/12/30 06:13:56;;;;;;;131.43;42.63;;;;;;;;;;5037068;28;20086;-90
2021/12/30 06:16:22;;;;;;;127.25;42.58;;;;;;;;;;5037833;28;20089;-90
2021/12/30 06:18:48;;;;;;;105.45;40.35;;;;;;;;;;5037841;28;20025;-90
2021/12/30 06:21:14;;;;;;;101.93;40.38;;;;;;;;;;5038036;28;20047;-91
2021/12/30 06:23:40;;;;;;;85.03;32.35;;;;;;;;;;5037053;28;20032;-90
2021/12/30 06:26:06;;;;;;;83.60;34.53;;;;;;;;;;5037823;28;20021;-89
2021/12/30 06:28:32;;;;;;;82.63;32.10;;;;;;;;;;5037293;28;20025;-90
2021/12/30 06:30:58;;;;;;;80.90;32.88;;;;;;;;;;5037770;28;20029;-91
2021/12/30 06:33:24;;;;;;;87.22;34.78;;;;;;;;;;5037669;28;20049;-90
2021/12/30 06:35:50;;;;;;;80.70;32.47;;;;;;;;;;5037583;28;20025;-90
2021/12/30 06:38:16;;;;;;;81.10;31.70;;;;;;;;;;5037846;28;20156;-90
2021/12/30 06:40:42;;;;;;;87.20;29.83;;;;;;;;;;5036554;28;20158;-90
2021/12/30 06:43:09;;;;;;;57.78;24.48;;;;;;;;;;5036386;28;20032;-88
2021/12/30 06:45:35;;;;;;;69.72;26.83;;;;;;;;;;5037578;28;20031;-88
2021/12/30 06:48:05;;;;;;;76.47;27.88;;;;;;;;;;5037397;28;20050;-88
2021/12/30 06:50:32;;;;;;;66.90;27.70;;;;;;;;;;5036723;28;20037;-88
2021/12/30 06:52:59;;;;;;;67.60;25.73;;;;;;;;;;5036522;28;20026;-89
2021/12/30 06:55:25;;;;;;;65.65;24.05;;;;;;;;;;5037549;28;20331;-89
2021/12/30 06:57:51;;;;;;;58.75;23.45;;;;;;;;;;5037563;28;20049;-88
2021/12/30 07:00:17;;;;;;;65.90;26.98;;;;;;;;;;5037468;28;20026;-89
2021/12/30 07:02:44;;;;;;;61.03;25.85;;;;;;;;;;5036653;28;20056;-89
2021/12/30 07:05:11;;;;;;;58.55;23.25;;;;;;;;;;5037238;28;20028;-89
2021/12/30 07:07:37;;;;;;;52.88;24.00;;;;;;;;;;5036340;28;20026;-89
2021/12/30 07:10:04;;;;;;;45.88;20.63;;;;;;;;;;5037195;28;20025;-88
2021/12/30 07:12:30;;;;;;;36.47;17.10;;;;;;;;;;5037176;28;20061;-89
2021/12/30 07:14:57;;;;;;;37.67;17.38;;;;;;;;;;5037425;28;20032;-88
2021/12/30 07:17:23;;;;;;;41.17;17.95;;;;;;;;;;5037150;28;20361;-88
2021/12/30 07:19:49;;;;;;;43.78;21.80;;;;;;;;;;5037189;28;20104;-87
2021/12/30 07:22:15;;;;;;;60.88;28.70;;;;;;;;;;5036157;28;20434;-87
2021/12/30 07:24:41;;;;;;;56.53;27.30;;;;;;;;;;5037260;28;20026;-87
2021/12/30 07:27:07;;;;;;;49.13;24.13;;;;;;;;;;5036791;28;20029;-88
2021/12/30 07:29:33;;;;;;;55.75;27.95;;;;;;;;;;5036526;28;20044;-88
2021/12/30 07:31:59;;;;;;;66.90;29.88;;;;;;;;;;5037783;28;20080;-90
2021/12/30 07:34:25;;;;;;;83.40;32.75;;;;;;;;;;5045896;28;20025;-86
2021/12/30 07:36:51;;;;;;;72.18;28.45;;;;;;;;;;5055038;28;20032;-87
2021/12/30 07:39:17;;;;;;;46.58;21.40;;;;;;;;;;5038132;28;20041;-87
2021/12/30 07:41:44;;;;;;;46.10;23.33;;;;;;;;;;5062947;28;20048;-86
2021/12/30 07:44:10;;;;;;;41.10;20.75;;;;;;;;;;5060256;28;20120;-87
2021/12/30 07:46:36;;;;;;;46.65;23.35;;;;;;;;;;5055082;28;20433;-87
2021/12/30 07:49:02;;;;;;;59.53;30.55;;;;;;;;;;5071839;28;20369;-86
2021/12/30 07:51:28;;;;;;;44.00;21.23;;;;;;;;;;5052666;28;20422;-86
2021/12/30 07:53:54;;;;;;;42.72;19.05;;;;;;;;;;5060795;28;20033;-90
2021/12/30 07:56:20;;;;;;;69.18;29.30;;;;;;;;;;5060608;28;20025;-89
2021/12/30 07:58:47;;;;;;;59.13;27.27;;;;;;;;;;5052431;28;20017;-89
2021/12/30 08:01:13;;;;;;;50.70;24.88;;;;;;;;;;5041991;28;20032;-90
2021/12/30 08:03:39;;;;;;;60.67;24.48;;;;;;;;;;5040689;28;20045;-89
2021/12/30 08:06:05;;;;;;;33.78;16.80;;;;;;;;;;5039468;28;20022;-88
2021/12/30 08:11:35;;;;;;;28.02;14.70;;;;;;;;;;5060266;28;20751;-91
2021/12/30 08:14:01;;;;;;;25.88;14.57;;;;;;;;;;5055946;28;20033;-91
2021/12/30 08:16:28;;;;;;;24.88;13.90;;;;;;;;;;5054795;28;20064;-89
2021/12/30 08:18:54;;;;;;;25.48;13.52;;;;;;;;;;5058492;28;20017;-88
2021/12/30 08:21:20;;;;;;;26.08;13.20;;;;;;;;;;5047950;28;20029;-89
2021/12/30 08:23:47;;;;;;;27.90;14.68;;;;;;;;;;5040323;28;20048;-89
2021/12/30 08:26:13;;;;;;;29.83;16.20;;;;;;;;;;5039947;28;20056;-89
2021/12/30 08:28:39;;;;;;;25.65;13.35;;;;;;;;;;5062350;28;20025;-89
2021/12/30 08:31:06;;;;;;;27.23;14.60;;;;;;;;;;5059691;28;20399;-88
2021/12/30 08:33:32;;;;;;;25.42;13.15;;;;;;;;;;5059776;28;20399;-89
2021/12/30 08:35:59;;;;;;;24.77;14.07;;;;;;;;;;5054337;28;20083;-89
2021/12/30 08:53:18;;;;;;;27.05;13.25;;;;;;;;;;5094576;27;20448;-90
2021/12/30 08:55:45;;;;;;;18.90;10.23;;;;;;;;;;5093100;28;20035;-89
2021/12/30 08:58:11;;;;;;;21.33;11.73;;;;;;;;;;5093719;28;20064;-87
2021/12/30 09:00:38;;;;;;;20.63;10.70;;;;;;;;;;5092267;28;20032;-86
2021/12/30 09:03:05;;;;;;;15.30;8.27;;;;;;;;;;5078958;28;20402;-86
2021/12/30 09:05:34;;;;;;;16.75;8.52;;;;;;;;;;5094525;28;20028;-86
2021/12/30 09:08:01;;;;;;;15.18;9.23;;;;;;;;;;5093477;28;20029;-87
2021/12/30 09:10:27;;;;;;;22.60;12.25;;;;;;;;;;5079643;28;20028;-87
2021/12/30 09:12:54;;;;;;;21.10;12.80;;;;;;;;;;5079640;28;20024;-87
2021/12/30 09:15:24;;;;;;;22.65;12.55;;;;;;;;;;5094613;28;20024;-87
2021/12/30 09:17:51;;;;;;;25.70;16.10;;;;;;;;;;5092803;28;20048;-87
2021/12/30 09:20:18;;;;;;;41.47;22.10;;;;;;;;;;5074481;28;20450;-87
2021/12/30 09:22:44;;;;;;;42.15;26.73;;;;;;;;;;5074081;28;20102;-86
2021/12/30 09:25:10;;;;;;;30.52;18.95;;;;;;;;;;5093648;28;20068;-87
2021/12/30 09:27:37;;;;;;;35.13;18.85;;;;;;;;;;5094054;28;20535;-86
2021/12/30 09:30:04;;;;;;;26.00;15.27;;;;;;;;;;5079246;28;20029;-86
2021/12/30 09:32:30;;;;;;;26.65;14.07;;;;;;;;;;5074431;28;20040;-86
2021/12/30 09:34:56;;;;;;;24.08;13.38;;;;;;;;;;5076911;28;20472;-86
2021/12/30 09:37:22;;;;;;;115.28;45.60;;;;;;;;;;5090789;28;20071;-86
2021/12/30 09:39:48;;;;;;;66.63;30.35;;;;;;;;;;5093254;28;20414;-85
2021/12/30 09:42:15;;;;;;;45.17;21.50;;;;;;;;;;5093428;28;20062;-85
2021/12/30 09:44:42;;;;;;;30.67;15.68;;;;;;;;;;5094445;28;20115;-87
2021/12/30 09:47:08;;;;;;;25.10;13.98;;;;;;;;;;5091887;28;20067;-86
2021/12/30 09:49:34;;;;;;;69.05;24.42;;;;;;;;;;5087915;28;20028;-87
2021/12/30 09:52:01;;;;;;;60.28;23.75;;;;;;;;;;5072334;28;20396;-85
2021/12/30 09:54:27;;;;;;;53.95;28.90;;;;;;;;;;5058978;28;20055;-86
2021/12/30 09:56:53;;;;;;;40.10;20.27;;;;;;;;;;5060407;28;20021;-86
2021/12/30 09:59:21;;;;;;;127.53;38.67;;;;;;;;;;5060196;28;20152;-86
2021/12/30 10:01:47;;;;;;;112.45;38.92;;;;;;;;;;5058704;28;20086;-87
2021/12/30 10:04:13;;;;;;;91.18;47.25;;;;;;;;;;5059594;28;20060;-86
2021/12/30 10:06:43;;;;;;;32.88;21.88;;;;;;;;;;5060514;28;20025;-86
2021/12/30 10:09:12;;;;;;;30.60;17.83;;;;;;;;;;5059855;28;20108;-88
2021/12/30 10:11:48;;;;;;;37.55;20.98;;;;;;;;;;5059106;28;20039;-87
2021/12/30 10:14:32;;;;;;;28.10;16.58;;;;;;;;;;5059778;28;20079;-88
2021/12/30 10:17:17;;;;;;;53.10;31.38;;;;;;;;;;5059931;28;20044;-86
2021/12/30 10:19:43;;;;;;;47.45;27.05;;;;;;;;;;5059869;28;20036;-87
2021/12/30 10:22:10;;;;;;;32.28;18.35;;;;;;;;;;5059304;28;20040;-86
2021/12/30 10:24:36;;;;;;;34.88;19.70;;;;;;;;;;5059953;28;20101;-87
2021/12/30 10:27:22;;;;;;;38.33;18.98;;;;;;;;;;5058724;28;20120;-85
2021/12/30 10:29:48;;;;;;;38.65;18.60;;;;;;;;;;5058809;28;20322;-87
2021/12/30 10:32:18;;;;;;;29.05;17.67;;;;;;;;;;5059810;28;20025;-87
2021/12/30 10:35:03;;;;;;;26.27;16.63;;;;;;;;;;5059820;28;20124;-86
2021/12/30 10:49:25;;;;;;;92.30;41.92;;;;;;;;;;5169848;27;20405;-88
2021/12/30 10:51:52;;;;;;;70.20;31.15;;;;;;;;;;5135934;27;20020;-89
2021/12/30 10:54:23;;;;;;;41.22;20.10;;;;;;;;;;5134952;28;20027;-85
2021/12/30 10:56:54;;;;;;;45.15;22.48;;;;;;;;;;5135892;27;20339;-85
2021/12/30 10:59:22;;;;;;;75.90;30.42;;;;;;;;;;5136020;27;20099;-85
2021/12/30 11:01:50;;;;;;;108.97;39.80;;;;;;;;;;5135613;27;20134;-86
2021/12/30 11:04:17;;;;;;;67.68;33.33;;;;;;;;;;5135286;27;20019;-86
2021/12/30 11:06:43;;;;;;;76.05;31.92;;;;;;;;;;5135405;27;20404;-85
2021/12/30 11:09:09;;;;;;;123.28;46.33;;;;;;;;;;5135303;27;20043;-85
2021/12/30 11:11:36;;;;;;;85.80;38.97;;;;;;;;;;5135443;27;20019;-86
2021/12/30 11:14:02;;;;;;;104.10;44.92;;;;;;;;;;5135330;27;20030;-86
2021/12/30 11:16:29;;;;;;;72.60;32.67;;;;;;;;;;5135074;27;20294;-85
2021/12/30 11:18:56;;;;;;;53.20;28.10;;;;;;;;;;5135371;27;20016;-85
2021/12/30 11:21:35;;;;;;;63.97;30.98;;;;;;;;;;5133818;28;20336;-85
2021/12/30 11:24:02;;;;;;;74.63;34.65;;;;;;;;;;5135038;27;20043;-85
2021/12/30 11:26:28;;;;;;;74.35;35.08;;;;;;;;;;5134823;27;20023;-85
2021/12/30 11:28:55;;;;;;;67.10;30.85;;;;;;;;;;5135100;27;20027;-85
2021/12/30 11:31:21;;;;;;;61.22;27.95;;;;;;;;;;5134046;28;20026;-85
2021/12/30 11:33:47;;;;;;;61.10;23.80;;;;;;;;;;5133515;28;20059;-85
2021/12/30 11:36:14;;;;;;;61.00;26.88;;;;;;;;;;5133831;28;20627;-85
2021/12/30 11:38:40;;;;;;;63.10;28.50;;;;;;;;;;5134531;27;20032;-85
2021/12/30 11:41:06;;;;;;;57.92;27.55;;;;;;;;;;5134068;27;20019;-84
2021/12/30 11:43:42;;;;;;;60.90;27.33;;;;;;;;;;5134300;28;20068;-84
2021/12/30 11:46:28;;;;;;;74.90;33.42;;;;;;;;;;5132193;28;20098;-84
2021/12/30 11:48:55;;;;;;;85.53;35.92;;;;;;;;;;5127173;28;20452;-85
2021/12/30 11:51:23;;;;;;;85.07;38.17;;;;;;;;;;5121026;27;20042;-85
2021/12/30 11:53:52;;;;;;;94.15;40.60;;;;;;;;;;5120526;28;20065;-85
2021/12/30 11:56:22;;;;;;;114.32;49.72;;;;;;;;;;5120744;28;20024;-85
2021/12/30 11:58:56;;;;;;;117.60;52.25;;;;;;;;;;5120724;28;20020;-84
2021/12/30 12:01:23;;;;;;;101.95;44.70;;;;;;;;;;5120565;28;20405;-84
2021/12/30 12:03:49;;;;;;;110.35;47.17;;;;;;;;;;5120834;28;20019;-84
2021/12/30 12:06:25;;;;;;;106.35;47.08;;;;;;;;;;5119652;27;20028;-85
2021/12/30 12:08:52;;;;;;;101.00;44.97;;;;;;;;;;5120403;28;20401;-85
2021/12/30 12:11:19;;;;;;;106.88;52.92;;;;;;;;;;5120408;27;20024;-85
2021/12/30 12:13:46;;;;;;;98.95;54.70;;;;;;;;;;5119404;28;20023;-85
2021/12/30 12:16:31;;;;;;;87.35;42.88;;;;;;;;;;5120393;28;20401;-84
2021/12/30 12:19:08;;;;;;;75.20;38.70;;;;;;;;;;5119792;27;20039;-84
2021/12/30 12:21:46;;;;;;;71.68;37.00;;;;;;;;;;5120163;27;20401;-84
2021/12/30 12:24:21;;;;;;;102.40;67.78;;;;;;;;;;5120174;28;20141;-85
2021/12/30 12:26:48;;;;;;;125.30;75.53;;;;;;;;;;5120446;28;20031;-84
2021/12/30 12:29:32;;;;;;;165.65;99.45;;;;;;;;;;5120372;28;20031;-85
2021/12/30 12:31:58;;;;;;;121.10;67.95;;;;;;;;;;5120131;28;20322;-85
2021/12/30 12:34:36;;;;;;;104.75;61.20;;;;;;;;;;5119862;27;20024;-84
2021/12/30 12:37:03;;;;;;;94.90;52.00;;;;;;;;;;5119798;28;20020;-84
2021/12/30 12:39:36;;;;;;;183.65;110.40;;;;;;;;;;5119007;28;20032;-85
2021/12/30 12:42:03;;;;;;;94.95;47.40;;;;;;;;;;5118872;28;20020;-84
2021/12/30 12:44:29;;;;;;;53.20;29.85;;;;;;;;;;5118916;28;20103;-85
2021/12/30 12:46:56;;;;;;;71.70;35.05;;;;;;;;;;5119465;28;20379;-84
2021/12/30 12:49:34;;;;;;;102.63;46.65;;;;;;;;;;5119331;27;20130;-85
2021/12/30 12:52:01;;;;;;;64.18;31.98;;;;;;;;;;5119911;28;20035;-85
2021/12/30 12:54:33;;;;;;;67.20;34.03;;;;;;;;;;5119440;28;20023;-84
2021/12/30 12:57:10;;;;;;;540.40;258.45;;;;;;;;;;5118524;28;20035;-84
2021/12/30 12:59:37;;;;;;;245.90;99.35;;;;;;;;;;5118673;27;20115;-84
2021/12/30 13:02:03;;;;;;;224.40;96.03;;;;;;;;;;5117567;28;20061;-84
2021/12/30 13:04:29;;;;;;;255.50;113.55;;;;;;;;;;5118470;28;20020;-85
2021/12/30 13:06:59;;;;;;;215.57;100.18;;;;;;;;;;5118603;27;20122;-84
2021/12/30 13:09:26;;;;;;;173.00;84.22;;;;;;;;;;5119312;28;20054;-84
2021/12/30 13:11:53;;;;;;;91.13;43.72;;;;;;;;;;5119255;27;20027;-84
2021/12/30 13:14:27;;;;;;;87.70;45.83;;;;;;;;;;5119217;28;20115;-84
2021/12/30 13:16:55;;;;;;;88.07;45.50;;;;;;;;;;5118687;28;20063;-84
2021/12/30 13:19:23;;;;;;;118.65;54.60;;;;;;;;;;5119218;28;20409;-84
2021/12/30 13:21:50;;;;;;;123.05;59.67;;;;;;;;;;5118383;27;20032;-84
2021/12/30 13:24:35;;;;;;;101.70;51.00;;;;;;;;;;5118189;28;20027;-84
2021/12/30 13:27:04;;;;;;;97.97;50.92;;;;;;;;;;5118900;28;20031;-84
2021/12/30 13:29:32;;;;;;;64.03;36.40;;;;;;;;;;5117758;28;20019;-84
2021/12/30 13:31:58;;;;;;;51.20;28.73;;;;;;;;;;5119032;27;20023;-84
2021/12/30 13:34:24;;;;;;;88.38;48.22;;;;;;;;;;5118976;28;20035;-84
2021/12/30 13:36:50;;;;;;;74.13;42.45;;;;;;;;;;5118652;28;20042;-84
2021/12/30 13:39:17;;;;;;;64.95;38.45;;;;;;;;;;5118659;28;20026;-84
2021/12/30 13:41:53;;;;;;;337.95;165.52;;;;;;;;;;5118821;28;20030;-84
2021/12/30 13:44:22;;;;;;;302.38;152.45;;;;;;;;;;5117421;28;20023;-84
2021/12/30 13:46:48;;;;;;;133.88;66.15;;;;;;;;;;5117820;27;20436;-84
2021/12/30 13:49:14;;;;;;;80.32;42.88;;;;;;;;;;5118067;28;20398;-85
2021/12/30 13:51:41;;;;;;;327.80;146.45;;;;;;;;;;5118276;28;20072;-84
2021/12/30 13:54:08;;;;;;;140.75;67.95;;;;;;;;;;5118455;28;20451;-84
2021/12/30 13:56:34;;;;;;;152.27;67.15;;;;;;;;;;5117234;28;20070;-84
2021/12/30 13:59:06;;;;;;;84.38;44.03;;;;;;;;;;5118272;28;20114;-84
2021/12/30 14:01:34;;;;;;;80.47;43.22;;;;;;;;;;5118229;28;20020;-84
2021/12/30 14:04:03;;;;;;;48.53;27.20;;;;;;;;;;5118347;28;20019;-84
2021/12/30 14:06:29;;;;;;;46.70;25.13;;;;;;;;;;5117477;28;20073;-84
2021/12/30 14:09:00;;;;;;;59.95;30.77;;;;;;;;;;5118059;28;20065;-84
2021/12/30 14:11:27;;;;;;;54.28;28.90;;;;;;;;;;5116775;28;20019;-84
2021/12/30 14:13:54;;;;;;;77.30;42.08;;;;;;;;;;5117994;28;20416;-84
2021/12/30 14:16:27;;;;;;;81.25;42.78;;;;;;;;;;5117945;28;20068;-84
2021/12/30 14:18:55;;;;;;;65.63;36.83;;;;;;;;;;5118125;28;20114;-84
2021/12/30 14:21:23;;;;;;;63.05;36.53;;;;;;;;;;5116835;28;20020;-84
2021/12/30 14:23:52;;;;;;;70.70;37.60;;;;;;;;;;5117779;28;20024;-88
2021/12/30 14:26:21;;;;;;;87.38;41.17;;;;;;;;;;5117950;28;20026;-87
2021/12/30 14:28:49;;;;;;;94.28;44.08;;;;;;;;;;5117060;28;20031;-84
2021/12/30 14:31:38;;;;;;;159.75;65.22;;;;;;;;;;5117649;27;20107;-85
2021/12/30 14:34:04;;;;;;;85.22;41.28;;;;;;;;;;5059297;28;20033;-86
2021/12/30 14:36:30;;;;;;;431.25;183.48;;;;;;;;;;5058933;28;20032;-89
2021/12/30 14:38:56;;;;;;;269.80;115.18;;;;;;;;;;5058365;28;20119;-86
2021/12/30 14:41:23;;;;;;;216.65;87.80;;;;;;;;;;5075801;28;20025;-86
2021/12/30 14:44:08;;;;;;;126.63;57.00;;;;;;;;;;5075758;28;20071;-85
2021/12/30 14:46:35;;;;;;;311.08;120.95;;;;;;;;;;5058438;28;20024;-86
2021/12/30 14:49:03;;;;;;;227.07;97.53;;;;;;;;;;5075005;28;20059;-86